Time;durP1;ratioP1;P1;durP2;ratioP2;P2;SDS_P1;SDS_P2;PMS_P1;PMS_P2;Temp;Humidity;BMP_temperature;BMP_pressure;BME280_temperature;BME280_humidity;BME280_pressure;Samples;Min_cycle;Max_cycle;Signal;HPM_P1;HPM_P2
2022/01/04 00:01:26;;;;;;;2.83;0.77;;;;;;;7.04;95.93;100051.25;5026484;28;20100;-68
2022/01/04 00:03:52;;;;;;;2.05;0.80;;;;;;;7.07;95.93;100051.75;5037631;28;20059;-68
2022/01/04 00:06:17;;;;;;;1.85;0.50;;;;;;;7.13;95.56;100047.78;5004911;28;20187;-68
2022/01/04 00:08:43;;;;;;;2.17;0.80;;;;;;;7.04;95.60;100035.78;5007778;28;20041;-68
2022/01/04 00:11:16;;;;;;;2.25;0.50;;;;;;;6.99;96.36;100031.09;5007707;28;20029;-68
2022/01/04 00:13:42;;;;;;;;;;;;;;;7.00;96.38;100030.13;5024598;28;20036;-68
2022/01/04 00:16:08;;;;;;;3.33;0.70;;;;;;;7.01;96.45;100024.81;5025897;28;20361;-69
2022/01/04 00:18:34;;;;;;;1.40;0.63;;;;;;;6.93;97.04;100018.78;4992336;28;20025;-68
2022/01/04 00:21:00;;;;;;;3.22;0.90;;;;;;;6.92;97.32;100014.63;5007554;28;20029;-68
2022/01/04 00:23:26;;;;;;;1.60;0.68;;;;;;;6.88;97.21;100014.09;5002371;28;20159;-68
2022/01/04 00:25:52;;;;;;;3.60;0.88;;;;;;;6.91;97.47;100002.69;5025364;28;20022;-68
2022/01/04 00:28:18;;;;;;;1.25;0.60;;;;;;;6.86;97.61;99992.03;5026135;28;20088;-68
2022/01/04 00:30:44;;;;;;;4.40;0.50;;;;;;;6.86;97.60;99977.38;5007860;28;20146;-69
2022/01/04 00:33:12;;;;;;;1.40;0.70;;;;;;;6.81;97.95;99985.53;5008987;28;20491;-68
2022/01/04 00:35:38;;;;;;;2.83;0.95;;;;;;;6.78;98.45;99980.72;5022652;28;20416;-68
2022/01/04 00:38:05;;;;;;;1.02;0.52;;;;;;;6.80;98.51;99976.22;5004431;28;20049;-69
2022/01/04 00:40:31;;;;;;;5.70;0.70;;;;;;;6.85;98.50;99974.94;5018137;23;20078;-70
2022/01/04 00:42:58;;;;;;;3.42;0.80;;;;;;;6.85;98.16;99969.78;5000649;28;20069;-70
2022/01/04 00:45:25;;;;;;;1.27;0.70;;;;;;;6.87;97.81;99966.09;5006212;28;20030;-69
2022/01/04 00:50:20;;;;;;;2.72;0.90;;;;;;;6.85;97.97;99949.16;5007755;28;20680;-69
2022/01/04 00:52:46;;;;;;;2.28;0.85;;;;;;;6.87;97.83;99942.88;5010549;28;20085;-69
2022/01/04 00:55:12;;;;;;;3.88;0.70;;;;;;;6.87;97.79;99939.50;5023947;28;20487;-69
2022/01/04 00:57:37;;;;;;;5.05;1.05;;;;;;;6.84;98.02;99932.91;5010378;28;20042;-70
2022/01/04 01:00:05;;;;;;;2.63;1.00;;;;;;;6.83;98.27;99931.28;5013896;28;20151;-70
2022/01/04 01:02:31;;;;;;;2.88;0.60;;;;;;;6.85;98.28;99929.34;5010683;28;20026;-70
2022/01/04 01:04:56;;;;;;;3.78;0.95;;;;;;;6.79;98.30;99923.03;5010044;28;20060;-69
2022/01/04 01:07:22;;;;;;;1.38;0.60;;;;;;;6.83;98.73;99923.53;5017301;28;20045;-70
2022/01/04 01:12:37;;;;;;;2.53;1.05;;;;;;;6.82;98.51;99911.63;4983614;28;20054;-70
2022/01/04 01:15:04;;;;;;;4.72;1.27;;;;;;;6.80;98.51;99909.22;5025201;28;20670;-70
2022/01/04 01:17:30;;;;;;;2.42;0.77;;;;;;;6.80;98.55;99911.78;5012769;28;20448;-70
2022/01/04 01:19:58;;;;;;;5.57;0.90;;;;;;;6.79;98.39;99902.41;5013915;28;20030;-70
2022/01/04 01:22:23;;;;;;;3.13;0.90;;;;;;;6.83;98.31;99908.88;5011757;28;20034;-70
2022/01/04 01:24:49;;;;;;;0.88;0.52;;;;;;;6.78;98.50;99900.00;5010404;28;20483;-69
2022/01/04 01:27:15;;;;;;;3.10;0.70;;;;;;;6.79;98.42;99910.16;5012863;28;20084;-71
2022/01/04 01:29:41;;;;;;;2.55;1.08;;;;;;;6.74;98.74;99891.78;5017183;28;20524;-70
2022/01/04 01:32:07;;;;;;;3.35;0.93;;;;;;;6.73;98.79;99899.66;5013901;28;20021;-69
2022/01/04 01:34:33;;;;;;;1.80;0.90;;;;;;;6.76;98.68;99904.50;5024711;28;20029;-69
2022/01/04 01:36:59;;;;;;;2.67;0.77;;;;;;;6.70;98.62;99897.38;5011476;28;20038;-70
2022/01/04 01:39:24;;;;;;;3.45;0.80;;;;;;;6.68;98.85;99907.84;4993213;28;20048;-70
2022/01/04 01:41:50;;;;;;;5.07;0.98;;;;;;;6.72;98.80;99892.88;5009026;28;20033;-70
2022/01/04 01:44:16;;;;;;;2.78;0.95;;;;;;;6.70;98.79;99894.81;5008981;28;20437;-70
2022/01/04 01:46:42;;;;;;;1.20;0.68;;;;;;;6.67;98.85;99888.19;5012340;28;20034;-69
2022/01/04 01:49:08;;;;;;;3.65;1.17;;;;;;;6.67;99.35;99880.47;5011434;28;20030;-70
2022/01/04 01:51:34;;;;;;;3.28;1.00;;;;;;;6.65;99.25;99886.72;4996165;28;20038;-70
2022/01/04 01:54:00;;;;;;;1.83;1.02;;;;;;;6.64;99.68;99883.34;4993146;28;20029;-70
2022/01/04 01:56:26;;;;;;;2.53;0.80;;;;;;;6.65;99.90;99881.56;5008389;28;20025;-70
2022/01/04 01:58:53;;;;;;;3.25;0.90;;;;;;;6.64;99.74;99880.75;5007954;28;20026;-70
2022/01/04 02:01:18;;;;;;;2.83;1.05;;;;;;;6.63;99.56;99876.59;5025592;28;20068;-70
2022/01/04 02:03:45;;;;;;;2.33;0.82;;;;;;;6.65;99.85;99873.84;5010536;28;20026;-70
2022/01/04 02:06:11;;;;;;;2.00;0.95;;;;;;;6.65;99.49;99863.53;5007206;28;20018;-70
2022/01/04 02:08:36;;;;;;;3.78;1.00;;;;;;;6.65;99.44;99861.78;5009475;28;20065;-70
2022/01/04 02:11:02;;;;;;;4.03;1.08;;;;;;;6.62;99.30;99860.31;5008780;28;20034;-71
2022/01/04 02:13:28;;;;;;;5.68;1.27;;;;;;;6.61;99.66;99850.97;5012589;28;20091;-70
2022/01/04 02:15:55;;;;;;;2.15;1.20;;;;;;;6.62;99.15;99851.78;5008668;28;20018;-70
2022/01/04 02:18:21;;;;;;;2.15;0.93;;;;;;;6.59;99.45;99846.91;5011049;28;20030;-70
2022/01/04 02:20:46;;;;;;;3.20;1.30;;;;;;;6.55;99.88;99841.25;5010360;28;20023;-70
2022/01/04 02:23:12;;;;;;;4.60;1.27;;;;;;;6.53;99.85;99844.97;5009002;28;20384;-70
2022/01/04 02:25:38;;;;;;;4.28;1.00;;;;;;;6.53;100.00;99842.38;5010314;28;20026;-70
2022/01/04 02:28:04;;;;;;;1.45;1.00;;;;;;;6.51;100.00;99839.97;5010441;28;20038;-70
2022/01/04 02:30:30;;;;;;;4.32;1.20;;;;;;;6.51;100.00;99836.59;5010479;28;20049;-70
2022/01/04 02:32:56;;;;;;;3.97;1.90;;;;;;;6.52;100.00;99833.06;5010298;28;20495;-70
2022/01/04 02:35:25;;;;;;;2.17;1.02;;;;;;;6.52;100.00;99825.34;4988861;28;20041;-70
2022/01/04 02:37:56;;;;;;;2.38;1.20;;;;;;;6.54;100.00;99826.00;5019906;28;21064;-70
2022/01/04 02:40:22;;;;;;;4.35;1.40;;;;;;;6.54;100.00;99819.06;5013745;28;20046;-69
2022/01/04 02:42:47;;;;;;;1.65;1.08;;;;;;;6.55;100.00;99810.34;5008875;28;20030;-70
2022/01/04 02:45:13;;;;;;;3.05;1.08;;;;;;;6.58;100.00;99817.00;5008557;28;20045;-70
2022/01/04 02:47:39;;;;;;;4.90;1.40;;;;;;;6.52;100.00;99810.69;5011017;28;20060;-70
2022/01/04 02:50:06;;;;;;;4.70;1.50;;;;;;;6.54;100.00;99818.25;5011349;28;20045;-69
2022/01/04 02:52:33;;;;;;;2.35;1.30;;;;;;;6.55;100.00;99822.44;5011809;28;20079;-70
2022/01/04 02:55:07;;;;;;;1.95;1.25;;;;;;;6.54;100.00;99818.25;5007008;28;20026;-70
2022/01/04 02:57:33;;;;;;;3.20;1.40;;;;;;;6.57;100.00;99825.66;5006114;28;20113;-71
2022/01/04 03:00:00;;;;;;;3.60;2.00;;;;;;;6.59;100.00;99822.00;5008753;28;20037;-70
2022/01/04 03:02:26;;;;;;;5.07;1.80;;;;;;;6.56;100.00;99822.28;5009794;28;20042;-70
2022/01/04 03:04:51;;;;;;;7.13;1.85;;;;;;;6.57;100.00;99817.94;5007214;28;20065;-70
2022/01/04 03:07:17;;;;;;;3.33;1.20;;;;;;;6.57;100.00;99805.06;5007209;28;20060;-70
2022/01/04 03:09:43;;;;;;;4.97;1.85;;;;;;;6.55;100.00;99810.34;5007380;28;20050;-70
2022/01/04 03:12:09;;;;;;;8.13;1.92;;;;;;;6.54;100.00;99795.88;5011454;28;20076;-69
2022/01/04 03:14:35;;;;;;;3.95;1.90;;;;;;;6.53;100.00;99796.03;4993280;28;20038;-70
2022/01/04 03:17:02;;;;;;;5.63;2.38;;;;;;;6.52;100.00;99795.22;5006440;28;20192;-70
2022/01/04 03:19:28;;;;;;;3.45;2.00;;;;;;;6.52;100.00;99781.56;5009845;28;20053;-70
2022/01/04 03:21:54;;;;;;;6.35;2.42;;;;;;;6.53;100.00;99773.66;5012697;28;20029;-70
2022/01/04 03:24:19;;;;;;;5.88;2.20;;;;;;;6.52;100.00;99771.25;5008973;28;20040;-70
2022/01/04 03:26:45;;;;;;;3.38;2.30;;;;;;;6.49;100.00;99761.25;5006445;28;20093;-69
2022/01/04 03:29:13;;;;;;;5.13;2.15;;;;;;;6.48;100.00;99751.88;5007596;28;20037;-69
2022/01/04 03:31:39;;;;;;;4.47;2.00;;;;;;;6.49;100.00;99744.00;5005043;28;20366;-69
2022/01/04 03:34:05;;;;;;;3.92;2.15;;;;;;;6.47;100.00;99733.06;5010704;28;20060;-69
2022/01/04 03:36:31;;;;;;;5.53;1.98;;;;;;;6.43;100.00;99731.75;5008975;28;20025;-70
2022/01/04 03:38:58;;;;;;;6.85;2.40;;;;;;;6.40;100.00;99730.31;5005030;28;20069;-70
2022/01/04 03:41:25;;;;;;;4.88;2.40;;;;;;;6.40;100.00;99722.59;5010765;28;20176;-70
2022/01/04 03:43:51;;;;;;;3.35;2.05;;;;;;;6.50;100.00;99706.19;5013186;28;20034;-70
2022/01/04 03:46:18;;;;;;;4.65;2.17;;;;;;;6.43;100.00;99693.94;5008178;28;20026;-70
2022/01/04 03:48:44;;;;;;;6.05;2.53;;;;;;;6.47;100.00;99688.47;5012477;28;20053;-70
2022/01/04 03:51:11;;;;;;;3.17;2.22;;;;;;;6.46;100.00;99682.53;5008484;28;20528;-70
2022/01/04 03:53:38;;;;;;;3.80;2.40;;;;;;;6.42;100.00;99681.22;5012131;28;20033;-70
2022/01/04 03:56:04;;;;;;;4.07;2.00;;;;;;;6.42;100.00;99666.59;5006653;28;20041;-70
2022/01/04 03:58:30;;;;;;;5.25;2.55;;;;;;;6.41;100.00;99675.25;5003810;28;20036;-71
2022/01/04 04:00:56;;;;;;;4.43;2.33;;;;;;;6.41;100.00;99670.09;5003916;28;20557;-70
2022/01/04 04:03:22;;;;;;;4.03;2.40;;;;;;;6.43;100.00;99663.03;5007847;28;20033;-70
2022/01/04 04:05:49;;;;;;;4.25;2.53;;;;;;;6.41;100.00;99659.81;5006645;28;20365;-70
2022/01/04 04:08:15;;;;;;;3.53;2.42;;;;;;;6.48;100.00;99656.59;5023621;28;20408;-70
2022/01/04 04:10:41;;;;;;;5.20;2.50;;;;;;;6.48;100.00;99652.28;5006774;28;20033;-70
2022/01/04 04:13:06;;;;;;;5.00;2.85;;;;;;;6.47;100.00;99636.97;5006607;28;20037;-70
2022/01/04 04:15:32;;;;;;;3.78;2.20;;;;;;;6.46;100.00;99631.03;5012286;28;20681;-70
2022/01/04 04:17:58;;;;;;;3.30;2.10;;;;;;;6.47;100.00;99632.63;5007207;28;20034;-69
2022/01/04 04:20:24;;;;;;;5.70;2.08;;;;;;;6.48;100.00;99633.41;5006852;28;20069;-70
2022/01/04 04:22:50;;;;;;;4.07;2.17;;;;;;;6.48;100.00;99616.22;5008588;28;20033;-69
2022/01/04 04:25:15;;;;;;;3.38;1.70;;;;;;;6.49;100.00;99617.81;5007902;28;20034;-70
2022/01/04 04:27:41;;;;;;;4.22;2.08;;;;;;;6.49;100.00;99612.66;5007919;28;20034;-69
2022/01/04 04:30:09;;;;;;;4.25;1.90;;;;;;;6.49;100.00;99611.88;5006304;28;20129;-69
2022/01/04 04:32:35;;;;;;;2.55;1.80;;;;;;;6.48;100.00;99598.19;4997394;28;20092;-70
2022/01/04 04:35:01;;;;;;;4.47;1.95;;;;;;;6.50;100.00;99600.59;5008331;28;20030;-70
2022/01/04 04:37:27;;;;;;;5.70;1.95;;;;;;;6.48;100.00;99602.50;5008309;28;20030;-70
2022/01/04 04:39:53;;;;;;;2.58;1.88;;;;;;;6.47;100.00;99585.47;5006022;28;20511;-70
2022/01/04 04:42:18;;;;;;;4.20;2.20;;;;;;;6.46;100.00;99596.72;5006478;28;20045;-69
2022/01/04 04:44:45;;;;;;;3.35;2.10;;;;;;;6.45;100.00;99590.78;5003478;28;20603;-69
2022/01/04 04:47:11;;;;;;;3.75;2.05;;;;;;;6.42;100.00;99589.31;5007457;28;20157;-70
2022/01/04 04:49:37;;;;;;;4.50;2.15;;;;;;;6.41;100.00;99582.56;5007022;28;20026;-70
2022/01/04 04:52:03;;;;;;;3.28;1.80;;;;;;;6.42;100.00;99585.94;5007154;28;20044;-70
2022/01/04 04:54:29;;;;;;;4.43;1.85;;;;;;;6.40;100.00;99583.53;5010177;28;20076;-69
2022/01/04 04:56:54;;;;;;;3.35;2.05;;;;;;;6.40;100.00;99586.09;5022404;28;20025;-70
2022/01/04 04:59:20;;;;;;;3.92;2.00;;;;;;;6.42;100.00;99583.34;5007187;28;20042;-70
2022/01/04 05:01:46;;;;;;;2.80;1.75;;;;;;;6.38;100.00;99588.00;5007684;28;20065;-69
2022/01/04 05:04:12;;;;;;;4.03;1.83;;;;;;;6.38;100.00;99585.44;5006866;28;20652;-70
2022/01/04 05:06:37;;;;;;;3.95;1.70;;;;;;;6.38;100.00;99587.22;5008368;28;20556;-69
2022/01/04 05:09:03;;;;;;;3.28;2.03;;;;;;;6.37;100.00;99583.84;5008761;28;20125;-69
2022/01/04 05:11:29;;;;;;;5.40;2.60;;;;;;;6.37;100.00;99588.19;5005372;28;20038;-70
2022/01/04 05:13:55;;;;;;;4.97;2.22;;;;;;;6.35;100.00;99585.78;5023210;28;21953;-69
2022/01/04 05:16:21;;;;;;;3.33;2.17;;;;;;;6.32;100.00;99586.06;5007293;28;20034;-70
2022/01/04 05:18:47;;;;;;;4.85;2.45;;;;;;;6.32;100.00;99588.66;5005244;28;20061;-70
2022/01/04 05:21:12;;;;;;;5.35;2.40;;;;;;;6.32;100.00;99588.66;5001089;28;20082;-69
2022/01/04 05:23:38;;;;;;;5.63;2.95;;;;;;;6.31;100.00;99583.66;5006050;28;20022;-69
2022/01/04 05:26:04;;;;;;;3.97;2.47;;;;;;;6.31;100.00;99589.63;5005563;28;20061;-69
2022/01/04 05:28:29;;;;;;;4.80;2.90;;;;;;;6.29;100.00;99593.31;5006486;28;20037;-69
2022/01/04 05:30:55;;;;;;;7.68;2.92;;;;;;;6.27;100.00;99582.34;5005878;28;20042;-70
2022/01/04 05:33:21;;;;;;;5.20;2.85;;;;;;;6.27;100.00;99595.22;5010738;28;20026;-69
2022/01/04 05:35:48;;;;;;;9.02;3.75;;;;;;;6.28;100.00;99584.78;5007794;28;20030;-70
2022/01/04 05:38:14;;;;;;;5.18;3.00;;;;;;;6.29;100.00;99585.56;5011937;28;20034;-69
2022/01/04 05:40:40;;;;;;;6.85;3.20;;;;;;;6.31;100.00;99587.06;5011899;28;20045;-69
2022/01/04 05:43:06;;;;;;;5.13;3.05;;;;;;;6.31;100.00;99574.19;5013186;28;20104;-70
2022/01/04 05:45:32;;;;;;;5.93;3.58;;;;;;;6.32;100.00;99556.97;4995281;28;20036;-69
2022/01/04 05:47:58;;;;;;;4.32;2.97;;;;;;;6.30;100.00;99556.31;5013309;28;20042;-70
2022/01/04 05:50:24;;;;;;;7.63;3.50;;;;;;;6.28;100.00;99553.88;5007035;28;20117;-70
2022/01/04 05:52:49;;;;;;;8.93;3.33;;;;;;;6.28;100.00;99550.50;5019536;28;20041;-69
2022/01/04 05:55:15;;;;;;;6.35;4.07;;;;;;;6.27;100.00;99538.59;5012095;28;20084;-70
2022/01/04 05:57:41;;;;;;;7.25;3.90;;;;;;;6.24;100.00;99539.72;5016561;28;20395;-69
2022/01/04 06:00:08;;;;;;;10.60;4.03;;;;;;;6.24;100.00;99537.16;5010049;28;20029;-69
2022/01/04 06:02:38;;;;;;;6.18;3.92;;;;;;;6.22;100.00;99526.22;5005306;28;20485;-69
2022/01/04 06:05:04;;;;;;;6.90;3.60;;;;;;;6.21;100.00;99525.38;5022466;28;20053;-69
2022/01/04 06:07:30;;;;;;;9.18;4.05;;;;;;;6.24;100.00;99511.41;5008291;28;20034;-69
2022/01/04 06:09:56;;;;;;;8.45;3.75;;;;;;;6.23;100.00;99522.66;5013130;28;20046;-70
2022/01/04 06:15:10;;;;;;;7.57;4.30;;;;;;;6.19;100.00;99513.66;5019771;28;20053;-69
2022/01/04 06:17:42;;;;;;;8.40;4.60;;;;;;;6.17;100.00;99516.38;5008939;28;20126;-69
2022/01/04 06:20:10;;;;;;;12.48;4.40;;;;;;;6.18;100.00;99514.63;5024157;28;20559;-70
2022/01/04 06:22:37;;;;;;;9.90;4.50;;;;;;;6.16;100.00;99506.22;5010322;28;20042;-70
2022/01/04 06:25:04;;;;;;;9.32;4.03;;;;;;;6.18;100.00;99510.28;5007413;28;20038;-70
2022/01/04 06:27:30;;;;;;;6.40;3.70;;;;;;;6.20;100.00;99500.63;5009484;28;20550;-70
2022/01/04 06:29:56;;;;;;;11.68;4.93;;;;;;;6.21;100.00;99501.41;5008165;28;20623;-70
2022/01/04 06:32:23;;;;;;;6.97;4.32;;;;;;;6.21;100.00;99499.63;5008765;28;20065;-69
2022/01/04 06:34:48;;;;;;;9.00;5.03;;;;;;;6.19;100.00;99498.19;5010025;28;20029;-70
2022/01/04 06:37:14;;;;;;;6.93;4.05;;;;;;;6.21;100.00;99493.69;5023526;28;20030;-69
2022/01/04 06:39:41;;;;;;;7.20;4.65;;;;;;;6.21;100.00;99486.78;5007882;28;20033;-70
2022/01/04 06:42:07;;;;;;;8.07;4.40;;;;;;;6.21;100.00;99489.34;5008799;28;20061;-71
2022/01/04 06:44:33;;;;;;;9.27;4.35;;;;;;;6.21;100.00;99496.28;5009617;28;20099;-69
2022/01/04 06:46:59;;;;;;;8.65;4.75;;;;;;;6.22;100.00;99493.53;5006773;28;20740;-70
2022/01/04 06:49:24;;;;;;;11.27;5.03;;;;;;;6.21;100.00;99501.41;5016889;28;20083;-69
2022/01/04 06:51:50;;;;;;;9.32;4.50;;;;;;;6.21;100.00;99494.50;5003328;28;20031;-70
2022/01/04 06:54:18;;;;;;;10.32;4.63;;;;;;;6.22;100.00;99488.41;5024586;28;20056;-69
2022/01/04 06:56:44;;;;;;;8.40;4.15;;;;;;;6.20;100.00;99486.97;5004893;28;20097;-70
2022/01/04 06:59:10;;;;;;;7.53;4.05;;;;;;;6.22;100.00;99485.03;5011255;28;20083;-70
2022/01/04 07:01:37;;;;;;;6.65;3.60;;;;;;;6.22;100.00;99472.16;5006693;28;20156;-70
2022/01/04 07:04:04;;;;;;;7.68;3.25;;;;;;;6.20;100.00;99481.81;5007529;28;20091;-69
2022/01/04 07:06:31;;;;;;;7.35;3.58;;;;;;;6.19;100.00;99490.47;5019011;28;20392;-70
2022/01/04 07:08:57;;;;;;;10.07;4.07;;;;;;;6.16;100.00;99483.06;5007282;28;20046;-70
2022/01/04 07:11:22;;;;;;;5.85;3.65;;;;;;;6.14;100.00;99483.25;5009316;28;20040;-70
2022/01/04 07:13:48;;;;;;;11.55;3.63;;;;;;;6.16;100.00;99478.75;5008857;28;20037;-69
2022/01/04 07:16:13;;;;;;;7.13;4.10;;;;;;;6.17;100.00;99471.81;5006514;28;20907;-70
2022/01/04 07:18:39;;;;;;;7.80;3.25;;;;;;;6.14;100.00;99462.66;5021771;28;20038;-70
2022/01/04 07:21:05;;;;;;;6.05;3.42;;;;;;;6.16;100.00;99459.91;5006314;28;20742;-70
2022/01/04 07:23:31;;;;;;;5.20;3.70;;;;;;;6.12;100.00;99450.91;5007917;28;20042;-70
2022/01/04 07:25:57;;;;;;;7.18;3.70;;;;;;;6.11;100.00;99446.72;5013626;28;20057;-70
2022/01/04 07:28:23;;;;;;;7.80;3.85;;;;;;;6.12;100.00;99459.44;5005279;28;20049;-70
2022/01/04 07:30:49;;;;;;;6.00;3.72;;;;;;;6.15;100.00;99458.31;5012833;28;20025;-70
2022/01/04 07:33:17;;;;;;;8.48;4.97;;;;;;;6.19;100.00;99457.00;5011167;28;20468;-69
2022/01/04 07:35:43;;;;;;;7.57;4.25;;;;;;;6.18;100.00;99463.16;5008496;28;20084;-71
2022/01/04 07:38:09;;;;;;;9.57;4.93;;;;;;;6.17;100.00;99457.16;5000122;28;20022;-70
2022/01/04 07:40:35;;;;;;;9.30;4.95;;;;;;;6.16;100.00;99460.72;5006246;28;20041;-70
2022/01/04 07:43:01;;;;;;;10.20;5.20;;;;;;;6.14;100.00;99454.09;5006655;28;20410;-69
2022/01/04 07:45:31;;;;;;;9.07;4.45;;;;;;;6.14;100.00;99446.38;5004225;28;20124;-70
2022/01/04 07:47:57;;;;;;;9.52;4.68;;;;;;;6.13;100.00;99455.09;5007813;28;20408;-70
2022/01/04 07:50:24;;;;;;;11.63;4.50;;;;;;;6.14;100.00;99457.50;5006833;28;20038;-71
2022/01/04 07:52:50;;;;;;;9.30;5.35;;;;;;;6.16;100.00;99458.16;5007542;28;20037;-69
2022/01/04 07:55:16;;;;;;;11.40;5.45;;;;;;;6.17;100.00;99456.38;5022032;28;20027;-70
2022/01/04 07:57:44;;;;;;;12.27;6.15;;;;;;;6.18;100.00;99437.41;5021976;28;20480;-70
2022/01/04 08:00:14;;;;;;;12.70;5.65;;;;;;;6.17;100.00;99441.72;5004603;28;20089;-69
2022/01/04 08:02:43;;;;;;;10.18;4.95;;;;;;;6.18;100.00;99440.78;5007655;28;20141;-69
2022/01/04 08:05:10;;;;;;;12.40;5.93;;;;;;;6.18;100.00;99455.44;5006977;28;20025;-69
2022/01/04 08:07:35;;;;;;;10.82;5.53;;;;;;;6.17;100.00;99461.53;5011091;28;20508;-70
2022/01/04 08:10:02;;;;;;;10.73;5.68;;;;;;;6.18;100.00;99455.44;5009379;28;20030;-69
2022/01/04 08:12:27;;;;;;;9.55;5.45;;;;;;;6.16;100.00;99447.03;5008743;28;20033;-70
2022/01/04 08:14:54;;;;;;;12.30;6.32;;;;;;;6.17;100.00;99457.16;5006448;28;20083;-70
2022/01/04 08:17:20;;;;;;;12.05;6.53;;;;;;;6.13;100.00;99449.94;5007497;28;20065;-70
2022/01/04 08:19:46;;;;;;;12.98;6.75;;;;;;;6.11;100.00;99449.31;5006910;28;20049;-70
2022/01/04 08:22:11;;;;;;;10.77;6.05;;;;;;;6.11;100.00;99454.44;5008249;28;20021;-69
2022/01/04 08:24:37;;;;;;;12.88;6.95;;;;;;;6.11;100.00;99447.53;5007859;28;20620;-70
2022/01/04 08:27:03;;;;;;;15.50;7.25;;;;;;;6.13;100.00;99449.94;5007005;28;20046;-69
2022/01/04 08:29:30;;;;;;;12.43;7.13;;;;;;;6.11;100.00;99444.16;5006711;28;20034;-69
2022/01/04 08:31:57;;;;;;;12.68;6.78;;;;;;;6.11;100.00;99439.81;5008587;28;20045;-70
2022/01/04 08:34:23;;;;;;;10.90;6.25;;;;;;;6.15;100.00;99437.72;5008019;28;20112;-70
2022/01/04 08:36:48;;;;;;;14.98;7.15;;;;;;;6.13;100.00;99435.28;5007769;28;20033;-70
2022/01/04 08:39:14;;;;;;;12.52;6.63;;;;;;;6.13;100.00;99435.28;5006203;28;20041;-70
2022/01/04 08:41:41;;;;;;;16.27;7.47;;;;;;;6.16;100.00;99439.31;5021085;28;20506;-71
2022/01/04 08:44:08;;;;;;;20.80;7.15;;;;;;;6.12;100.00;99422.56;5023327;28;20030;-71
2022/01/04 08:46:35;;;;;;;16.75;6.75;;;;;;;6.12;100.00;99425.16;5006874;28;20018;-69
2022/01/04 08:49:07;;;;;;;14.30;6.88;;;;;;;6.17;100.00;99416.00;5006597;28;20041;-70
2022/01/04 08:51:33;;;;;;;17.02;6.70;;;;;;;6.17;100.00;99416.00;5007306;28;20595;-70
2022/01/04 08:53:59;;;;;;;11.60;6.55;;;;;;;6.18;100.00;99430.47;5005512;28;20120;-70
2022/01/04 08:56:26;;;;;;;13.45;6.18;;;;;;;6.18;100.00;99447.69;5008911;28;20092;-70
2022/01/04 08:58:51;;;;;;;11.00;6.20;;;;;;;6.20;100.00;99438.84;5007834;28;20032;-70
2022/01/04 09:01:17;;;;;;;13.93;7.32;;;;;;;6.18;100.00;99437.41;5004809;28;20403;-70
2022/01/04 09:03:43;;;;;;;12.90;6.78;;;;;;;6.20;100.00;99450.91;5002560;28;20045;-71
2022/01/04 09:06:10;;;;;;;14.25;7.30;;;;;;;6.20;100.00;99453.50;5007947;28;20060;-70
2022/01/04 09:08:36;;;;;;;13.00;7.30;;;;;;;6.20;100.00;99454.28;5022306;28;20168;-70
2022/01/04 09:11:02;;;;;;;12.32;6.63;;;;;;;6.19;100.00;99469.88;5011493;28;20042;-70
2022/01/04 09:13:34;;;;;;;13.60;7.38;;;;;;;6.23;100.00;99473.75;5011056;28;20076;-70
2022/01/04 09:21:12;;;;;;;14.77;7.80;;;;;;;6.24;100.00;99462.50;5009228;28;20038;-70
2022/01/04 09:23:38;;;;;;;12.48;6.88;;;;;;;6.22;100.00;99456.72;5009557;28;20087;-69
2022/01/04 09:26:04;;;;;;;13.52;7.15;;;;;;;6.24;100.00;99450.41;5011153;28;20029;-70
2022/01/04 09:28:29;;;;;;;12.52;6.95;;;;;;;6.22;100.00;99439.47;5010953;28;20468;-69
2022/01/04 09:30:57;;;;;;;12.43;7.63;;;;;;;6.21;100.00;99422.41;5026650;28;20029;-71
2022/01/04 09:33:22;;;;;;;12.30;6.72;;;;;;;6.24;100.00;99431.59;5007165;28;20084;-70
2022/01/04 09:35:51;;;;;;;11.95;6.97;;;;;;;6.26;100.00;99439.16;5011161;28;20030;-70
2022/01/04 09:38:17;;;;;;;12.65;7.07;;;;;;;6.28;100.00;99453.47;5010694;28;20052;-70
2022/01/04 09:40:43;;;;;;;11.43;6.68;;;;;;;6.30;100.00;99466.19;5008751;28;20493;-71
2022/01/04 09:43:09;;;;;;;12.70;6.55;;;;;;;6.28;100.00;99455.25;5010734;28;20020;-70
2022/01/04 09:45:36;;;;;;;13.13;7.15;;;;;;;6.31;100.00;99478.91;5010529;28;20109;-69
2022/01/04 09:48:02;;;;;;;14.95;6.95;;;;;;;6.31;100.00;99470.38;5007962;28;20033;-70
2022/01/04 09:50:28;;;;;;;11.88;6.63;;;;;;;6.32;100.00;99462.50;5010975;28;20034;-69
2022/01/04 09:52:55;;;;;;;14.05;6.63;;;;;;;6.29;100.00;99459.44;5008960;28;20033;-70
2022/01/04 09:55:22;;;;;;;13.95;6.90;;;;;;;6.30;100.00;99473.94;5004632;28;20091;-70
2022/01/04 09:57:47;;;;;;;12.95;6.30;;;;;;;6.27;100.00;99464.72;5008458;28;20125;-70
2022/01/04 10:00:16;;;;;;;10.07;6.25;;;;;;;6.28;100.00;99440.63;4998230;28;20030;-69
2022/01/04 10:02:43;;;;;;;12.48;6.35;;;;;;;6.29;100.00;99447.38;5006770;28;20027;-69
2022/01/04 10:05:15;;;;;;;10.85;6.60;;;;;;;6.30;100.00;99450.75;5007141;28;20030;-70
2022/01/04 10:07:41;;;;;;;12.20;6.83;;;;;;;6.32;100.00;99452.19;5006174;28;20069;-70
2022/01/04 10:10:17;;;;;;;12.82;7.30;;;;;;;6.34;100.00;99454.59;5008284;28;20033;-70
2022/01/04 10:13:01;;;;;;;12.00;6.13;;;;;;;6.32;100.00;99462.50;5008540;28;20740;-70
2022/01/04 10:15:46;;;;;;;13.52;6.63;;;;;;;6.36;100.00;99460.41;5005181;28;20514;-69
2022/01/04 10:18:16;;;;;;;14.75;6.93;;;;;;;6.40;100.00;99456.53;5006913;28;20389;-70
2022/01/04 10:20:53;;;;;;;14.35;7.20;;;;;;;6.38;100.00;99463.63;5007008;28;20042;-69
2022/01/04 10:23:23;;;;;;;13.07;6.50;;;;;;;6.38;100.00;99464.41;5002373;28;20041;-69
2022/01/04 10:26:01;;;;;;;11.52;6.68;;;;;;;6.40;100.00;99462.50;5008471;28;20034;-69
2022/01/04 10:28:34;;;;;;;12.07;6.90;;;;;;;6.40;100.00;99464.25;5007824;28;20458;-69
2022/01/04 10:31:05;;;;;;;14.13;7.65;;;;;;;6.43;100.00;99469.09;4990585;28;20092;-70
2022/01/04 10:33:33;;;;;;;13.40;6.53;;;;;;;6.43;100.00;99459.59;5013453;28;20124;-69
2022/01/04 10:36:00;;;;;;;11.52;6.32;;;;;;;6.46;100.00;99453.34;5003513;28;20266;-70
2022/01/04 10:38:28;;;;;;;11.65;6.95;;;;;;;6.46;100.00;99448.19;5006336;28;20060;-69
2022/01/04 10:41:20;;;;;;;14.85;7.00;;;;;;;6.46;100.00;99444.78;5002909;28;20023;-70
2022/01/04 10:43:49;;;;;;;13.48;6.88;;;;;;;6.50;100.00;99444.31;5007478;28;20048;-69
2022/01/04 10:46:18;;;;;;;14.63;7.20;;;;;;;6.50;100.00;99435.75;4999829;28;20488;-69
2022/01/04 10:48:46;;;;;;;14.38;6.85;;;;;;;6.52;100.00;99437.22;5005000;28;20120;-69
2022/01/04 10:51:13;;;;;;;13.55;6.45;;;;;;;6.55;100.00;99438.66;5007917;28;20374;-69
2022/01/04 10:53:44;;;;;;;15.07;7.40;;;;;;;6.53;100.00;99425.16;5006357;28;20435;-69
2022/01/04 10:56:12;;;;;;;14.10;6.30;;;;;;;6.52;100.00;99432.06;5006610;28;20052;-69
2022/01/04 10:58:41;;;;;;;10.77;6.22;;;;;;;6.52;100.00;99437.22;5006065;28;20048;-69
2022/01/04 11:01:10;;;;;;;10.52;6.55;;;;;;;6.53;100.00;99446.53;5020283;28;20026;-69
2022/01/04 11:03:38;;;;;;;12.13;6.18;;;;;;;6.53;100.00;99431.09;5013257;28;20034;-69
2022/01/04 11:06:12;;;;;;;12.40;5.88;;;;;;;6.57;100.00;99426.41;5007050;28;20141;-69
2022/01/04 11:08:40;;;;;;;8.30;5.60;;;;;;;6.57;100.00;99421.28;5006785;28;20583;-69
2022/01/04 11:11:06;;;;;;;10.07;5.63;;;;;;;6.57;100.00;99437.53;5009116;28;20037;-69
2022/01/04 11:13:32;;;;;;;15.10;5.65;;;;;;;6.61;100.00;99433.69;5006378;28;20080;-70
2022/01/04 11:16:00;;;;;;;11.30;5.43;;;;;;;6.62;100.00;99440.41;5008883;28;20428;-69
2022/01/04 11:18:27;;;;;;;13.23;6.25;;;;;;;6.63;100.00;99439.47;5001427;28;20084;-69
2022/01/04 11:20:54;;;;;;;13.32;5.97;;;;;;;6.65;100.00;99439.31;5006432;28;20125;-70
2022/01/04 11:23:28;;;;;;;11.77;6.20;;;;;;;6.66;99.95;99442.69;5020309;28;20060;-69
2022/01/04 11:25:55;;;;;;;11.57;6.35;;;;;;;6.64;99.99;99435.09;5006818;28;20034;-70
2022/01/04 11:28:23;;;;;;;13.13;6.07;;;;;;;6.66;100.00;99433.16;5006218;28;20085;-70
2022/01/04 11:30:56;;;;;;;13.15;5.93;;;;;;;6.67;100.00;99424.50;5008628;28;20052;-69
2022/01/04 11:33:43;;;;;;;12.85;6.30;;;;;;;6.72;100.00;99432.50;5017750;28;20034;-69
2022/01/04 11:36:09;;;;;;;15.40;6.82;;;;;;;6.71;99.85;99427.53;4990734;28;20110;-69
2022/01/04 11:38:37;;;;;;;16.30;6.75;;;;;;;6.73;99.93;99431.56;5005796;28;20627;-69
2022/01/04 11:41:04;;;;;;;18.08;6.75;;;;;;;6.69;99.68;99430.28;5003461;28;20266;-69
2022/01/04 11:43:36;;;;;;;17.58;7.50;;;;;;;6.68;99.60;99436.38;5004084;28;20030;-70